sensor_id;sensor_type;location;lat;lon;timestamp;P1;durP1;ratioP1;P2;durP2;ratioP2
77571;SDS011;67214;47.454;18.966;2023-02-12T00:01:18;27.17;;;15.53;;
77571;SDS011;67214;47.454;18.966;2023-02-12T00:03:46;26.68;;;16.65;;
77571;SDS011;67214;47.454;18.966;2023-02-12T00:06:14;27.05;;;16.52;;
77571;SDS011;67214;47.454;18.966;2023-02-12T00:08:42;26.57;;;15.68;;
77571;SDS011;67214;47.454;18.966;2023-02-12T00:11:15;28.73;;;17.10;;
77571;SDS011;67214;47.454;18.966;2023-02-12T00:13:40;26.82;;;17.23;;
77571;SDS011;67214;47.454;18.966;2023-02-12T00:16:09;28.75;;;17.27;;
77571;SDS011;67214;47.454;18.966;2023-02-12T00:18:38;26.07;;;17.00;;
77571;SDS011;67214;47.454;18.966;2023-02-12T00:21:06;24.37;;;16.48;;
77571;SDS011;67214;47.454;18.966;2023-02-12T00:23:34;25.48;;;15.55;;
77571;SDS011;67214;47.454;18.966;2023-02-12T00:26:13;27.02;;;18.23;;
77571;SDS011;67214;47.454;18.966;2023-02-12T00:28:41;24.30;;;17.40;;
77571;SDS011;67214;47.454;18.966;2023-02-12T00:31:10;26.17;;;16.95;;
77571;SDS011;67214;47.454;18.966;2023-02-12T00:33:40;28.07;;;16.55;;
77571;SDS011;67214;47.454;18.966;2023-02-12T00:36:07;26.60;;;15.40;;
77571;SDS011;67214;47.454;18.966;2023-02-12T00:38:37;24.00;;;16.80;;
77571;SDS011;67214;47.454;18.966;2023-02-12T00:41:04;27.87;;;17.35;;
77571;SDS011;67214;47.454;18.966;2023-02-12T00:43:32;23.75;;;16.17;;
77571;SDS011;67214;47.454;18.966;2023-02-12T00:46:01;27.52;;;17.50;;
77571;SDS011;67214;47.454;18.966;2023-02-12T00:48:29;25.70;;;16.12;;
77571;SDS011;67214;47.454;18.966;2023-02-12T00:50:57;26.52;;;16.93;;
77571;SDS011;67214;47.454;18.966;2023-02-12T00:53:25;26.10;;;18.17;;
77571;SDS011;67214;47.454;18.966;2023-02-12T00:55:52;27.77;;;17.15;;
77571;SDS011;67214;47.454;18.966;2023-02-12T00:58:20;25.12;;;16.97;;
77571;SDS011;67214;47.454;18.966;2023-02-12T01:00:48;28.10;;;18.73;;
77571;SDS011;67214;47.454;18.966;2023-02-12T01:03:15;26.57;;;17.23;;
77571;SDS011;67214;47.454;18.966;2023-02-12T01:05:43;26.90;;;15.93;;
77571;SDS011;67214;47.454;18.966;2023-02-12T01:08:11;26.05;;;17.40;;
77571;SDS011;67214;47.454;18.966;2023-02-12T01:10:41;29.72;;;17.40;;
77571;SDS011;67214;47.454;18.966;2023-02-12T01:13:12;28.10;;;16.77;;
77571;SDS011;67214;47.454;18.966;2023-02-12T01:15:40;25.90;;;17.25;;
77571;SDS011;67214;47.454;18.966;2023-02-12T01:18:08;27.50;;;17.73;;
77571;SDS011;67214;47.454;18.966;2023-02-12T01:20:38;28.87;;;19.02;;
77571;SDS011;67214;47.454;18.966;2023-02-12T01:23:05;24.60;;;15.85;;
77571;SDS011;67214;47.454;18.966;2023-02-12T01:25:33;25.72;;;14.98;;
77571;SDS011;67214;47.454;18.966;2023-02-12T01:28:00;28.65;;;16.50;;
77571;SDS011;67214;47.454;18.966;2023-02-12T01:30:28;24.25;;;16.05;;
77571;SDS011;67214;47.454;18.966;2023-02-12T01:32:55;25.80;;;15.50;;
77571;SDS011;67214;47.454;18.966;2023-02-12T01:35:25;24.75;;;17.12;;
77571;SDS011;67214;47.454;18.966;2023-02-12T01:37:52;29.25;;;16.87;;
77571;SDS011;67214;47.454;18.966;2023-02-12T01:40:20;27.42;;;18.50;;
77571;SDS011;67214;47.454;18.966;2023-02-12T01:42:47;29.32;;;18.77;;
77571;SDS011;67214;47.454;18.966;2023-02-12T01:47:46;25.25;;;18.37;;
77571;SDS011;67214;47.454;18.966;2023-02-12T01:50:14;24.25;;;16.10;;
77571;SDS011;67214;47.454;18.966;2023-02-12T01:52:45;27.65;;;17.40;;
77571;SDS011;67214;47.454;18.966;2023-02-12T01:55:15;28.80;;;18.70;;
77571;SDS011;67214;47.454;18.966;2023-02-12T01:57:44;28.23;;;17.62;;
77571;SDS011;67214;47.454;18.966;2023-02-12T02:00:15;28.23;;;17.40;;
77571;SDS011;67214;47.454;18.966;2023-02-12T02:02:45;30.80;;;18.27;;
77571;SDS011;67214;47.454;18.966;2023-02-12T02:05:17;23.02;;;15.78;;
77571;SDS011;67214;47.454;18.966;2023-02-12T02:07:45;24.32;;;16.55;;
77571;SDS011;67214;47.454;18.966;2023-02-12T02:10:13;28.73;;;19.15;;
77571;SDS011;67214;47.454;18.966;2023-02-12T02:12:41;26.57;;;17.95;;
77571;SDS011;67214;47.454;18.966;2023-02-12T02:15:27;27.65;;;17.98;;
77571;SDS011;67214;47.454;18.966;2023-02-12T02:20:42;27.48;;;18.02;;
77571;SDS011;67214;47.454;18.966;2023-02-12T02:28:56;28.47;;;19.15;;
77571;SDS011;67214;47.454;18.966;2023-02-12T02:31:46;27.27;;;18.65;;
77571;SDS011;67214;47.454;18.966;2023-02-12T02:34:23;26.70;;;15.95;;
77571;SDS011;67214;47.454;18.966;2023-02-12T02:37:17;25.57;;;15.80;;
77571;SDS011;67214;47.454;18.966;2023-02-12T02:42:36;25.72;;;16.25;;
77571;SDS011;67214;47.454;18.966;2023-02-12T02:45:18;26.82;;;17.10;;
77571;SDS011;67214;47.454;18.966;2023-02-12T02:47:48;28.38;;;16.17;;
77571;SDS011;67214;47.454;18.966;2023-02-12T02:50:19;25.37;;;16.85;;
77571;SDS011;67214;47.454;18.966;2023-02-12T02:53:01;23.90;;;15.35;;
77571;SDS011;67214;47.454;18.966;2023-02-12T02:55:39;24.10;;;15.13;;
77571;SDS011;67214;47.454;18.966;2023-02-12T02:58:09;26.82;;;16.07;;
77571;SDS011;67214;47.454;18.966;2023-02-12T03:00:38;27.55;;;17.02;;
77571;SDS011;67214;47.454;18.966;2023-02-12T03:03:16;21.80;;;14.85;;
77571;SDS011;67214;47.454;18.966;2023-02-12T03:05:48;23.77;;;16.48;;
77571;SDS011;67214;47.454;18.966;2023-02-12T03:08:24;26.20;;;18.67;;
77571;SDS011;67214;47.454;18.966;2023-02-12T03:10:58;26.35;;;18.30;;
77571;SDS011;67214;47.454;18.966;2023-02-12T03:13:35;26.33;;;17.45;;
77571;SDS011;67214;47.454;18.966;2023-02-12T03:16:10;25.48;;;16.60;;
77571;SDS011;67214;47.454;18.966;2023-02-12T03:18:40;23.92;;;16.57;;
77571;SDS011;67214;47.454;18.966;2023-02-12T03:21:16;25.75;;;16.60;;
77571;SDS011;67214;47.454;18.966;2023-02-12T03:23:51;24.63;;;16.97;;
77571;SDS011;67214;47.454;18.966;2023-02-12T03:26:22;24.02;;;16.12;;
77571;SDS011;67214;47.454;18.966;2023-02-12T03:28:47;23.90;;;15.98;;
77571;SDS011;67214;47.454;18.966;2023-02-12T03:31:27;23.50;;;16.75;;
77571;SDS011;67214;47.454;18.966;2023-02-12T03:33:59;21.77;;;15.90;;
77571;SDS011;67214;47.454;18.966;2023-02-12T03:36:43;24.75;;;17.45;;
77571;SDS011;67214;47.454;18.966;2023-02-12T03:42:31;25.70;;;17.77;;
77571;SDS011;67214;47.454;18.966;2023-02-12T03:51:00;23.77;;;16.37;;
77571;SDS011;67214;47.454;18.966;2023-02-12T03:53:31;23.92;;;16.65;;
77571;SDS011;67214;47.454;18.966;2023-02-12T03:56:00;20.82;;;15.18;;
77571;SDS011;67214;47.454;18.966;2023-02-12T03:58:38;18.90;;;12.65;;
77571;SDS011;67214;47.454;18.966;2023-02-12T04:01:07;21.90;;;15.45;;
77571;SDS011;67214;47.454;18.966;2023-02-12T04:03:36;22.87;;;15.88;;
77571;SDS011;67214;47.454;18.966;2023-02-12T04:06:04;24.55;;;15.58;;
77571;SDS011;67214;47.454;18.966;2023-02-12T04:08:33;22.15;;;15.03;;
77571;SDS011;67214;47.454;18.966;2023-02-12T04:11:16;24.02;;;16.35;;
77571;SDS011;67214;47.454;18.966;2023-02-12T04:13:57;22.15;;;15.50;;
77571;SDS011;67214;47.454;18.966;2023-02-12T04:16:24;22.50;;;15.08;;
77571;SDS011;67214;47.454;18.966;2023-02-12T04:18:53;21.07;;;13.85;;
77571;SDS011;67214;47.454;18.966;2023-02-12T04:24:08;19.73;;;13.72;;
77571;SDS011;67214;47.454;18.966;2023-02-12T04:26:38;20.32;;;14.65;;
77571;SDS011;67214;47.454;18.966;2023-02-12T04:32:05;18.82;;;13.00;;
77571;SDS011;67214;47.454;18.966;2023-02-12T04:39:58;19.77;;;13.55;;
77571;SDS011;67214;47.454;18.966;2023-02-12T04:42:28;21.17;;;14.58;;
77571;SDS011;67214;47.454;18.966;2023-02-12T04:44:56;19.75;;;14.20;;
77571;SDS011;67214;47.454;18.966;2023-02-12T04:47:24;20.40;;;13.80;;
77571;SDS011;67214;47.454;18.966;2023-02-12T04:49:52;24.23;;;13.93;;
77571;SDS011;67214;47.454;18.966;2023-02-12T04:52:19;19.98;;;13.72;;
77571;SDS011;67214;47.454;18.966;2023-02-12T04:54:47;18.48;;;12.40;;
77571;SDS011;67214;47.454;18.966;2023-02-12T04:57:14;19.73;;;14.58;;
77571;SDS011;67214;47.454;18.966;2023-02-12T04:59:41;20.55;;;15.03;;
77571;SDS011;67214;47.454;18.966;2023-02-12T05:02:09;22.10;;;14.70;;
77571;SDS011;67214;47.454;18.966;2023-02-12T05:04:36;19.05;;;13.08;;
77571;SDS011;67214;47.454;18.966;2023-02-12T05:07:09;22.13;;;14.07;;
77571;SDS011;67214;47.454;18.966;2023-02-12T05:09:33;21.07;;;14.33;;
77571;SDS011;67214;47.454;18.966;2023-02-12T05:12:00;19.42;;;13.85;;
77571;SDS011;67214;47.454;18.966;2023-02-12T05:14:30;19.27;;;13.85;;
77571;SDS011;67214;47.454;18.966;2023-02-12T05:16:57;21.23;;;14.20;;
77571;SDS011;67214;47.454;18.966;2023-02-12T05:19:24;17.57;;;12.35;;
77571;SDS011;67214;47.454;18.966;2023-02-12T05:21:52;22.85;;;15.60;;
77571;SDS011;67214;47.454;18.966;2023-02-12T05:24:19;19.27;;;14.53;;
77571;SDS011;67214;47.454;18.966;2023-02-12T05:26:47;22.30;;;15.40;;
77571;SDS011;67214;47.454;18.966;2023-02-12T05:29:15;21.42;;;13.75;;
77571;SDS011;67214;47.454;18.966;2023-02-12T05:31:43;23.35;;;14.98;;
77571;SDS011;67214;47.454;18.966;2023-02-12T05:34:10;20.85;;;15.75;;
77571;SDS011;67214;47.454;18.966;2023-02-12T05:36:39;19.20;;;14.35;;
77571;SDS011;67214;47.454;18.966;2023-02-12T05:39:07;21.50;;;15.43;;
77571;SDS011;67214;47.454;18.966;2023-02-12T05:41:35;21.33;;;14.95;;
77571;SDS011;67214;47.454;18.966;2023-02-12T05:44:03;25.32;;;16.65;;
77571;SDS011;67214;47.454;18.966;2023-02-12T05:46:31;26.12;;;18.07;;
77571;SDS011;67214;47.454;18.966;2023-02-12T05:48:59;26.52;;;16.60;;
77571;SDS011;67214;47.454;18.966;2023-02-12T05:51:27;24.95;;;15.53;;
77571;SDS011;67214;47.454;18.966;2023-02-12T05:53:57;23.42;;;16.45;;
77571;SDS011;67214;47.454;18.966;2023-02-12T05:56:29;23.87;;;16.37;;
77571;SDS011;67214;47.454;18.966;2023-02-12T05:58:59;26.68;;;17.80;;
77571;SDS011;67214;47.454;18.966;2023-02-12T06:01:38;27.10;;;18.40;;
77571;SDS011;67214;47.454;18.966;2023-02-12T06:04:03;28.30;;;18.55;;
77571;SDS011;67214;47.454;18.966;2023-02-12T06:06:32;27.42;;;18.37;;
77571;SDS011;67214;47.454;18.966;2023-02-12T06:09:00;26.27;;;18.00;;
77571;SDS011;67214;47.454;18.966;2023-02-12T06:11:28;25.50;;;18.32;;
77571;SDS011;67214;47.454;18.966;2023-02-12T06:13:55;29.20;;;19.67;;
77571;SDS011;67214;47.454;18.966;2023-02-12T06:16:24;25.77;;;17.92;;
77571;SDS011;67214;47.454;18.966;2023-02-12T06:18:53;25.60;;;17.55;;
77571;SDS011;67214;47.454;18.966;2023-02-12T06:21:22;23.65;;;16.40;;
77571;SDS011;67214;47.454;18.966;2023-02-12T06:23:51;22.30;;;15.18;;
77571;SDS011;67214;47.454;18.966;2023-02-12T06:26:19;25.82;;;17.42;;
77571;SDS011;67214;47.454;18.966;2023-02-12T06:28:47;26.73;;;15.23;;
77571;SDS011;67214;47.454;18.966;2023-02-12T06:31:23;25.35;;;17.98;;
77571;SDS011;67214;47.454;18.966;2023-02-12T06:33:53;29.18;;;18.57;;
77571;SDS011;67214;47.454;18.966;2023-02-12T06:36:22;27.32;;;18.85;;
77571;SDS011;67214;47.454;18.966;2023-02-12T06:38:50;29.75;;;18.87;;
77571;SDS011;67214;47.454;18.966;2023-02-12T06:41:18;25.45;;;18.10;;
77571;SDS011;67214;47.454;18.966;2023-02-12T06:43:46;26.37;;;18.30;;
77571;SDS011;67214;47.454;18.966;2023-02-12T06:46:14;26.75;;;18.35;;
77571;SDS011;67214;47.454;18.966;2023-02-12T06:48:42;27.48;;;18.10;;
77571;SDS011;67214;47.454;18.966;2023-02-12T06:51:11;30.52;;;21.90;;
77571;SDS011;67214;47.454;18.966;2023-02-12T06:53:40;31.68;;;20.45;;
77571;SDS011;67214;47.454;18.966;2023-02-12T06:56:08;27.48;;;19.52;;
77571;SDS011;67214;47.454;18.966;2023-02-12T06:58:38;28.15;;;20.27;;
77571;SDS011;67214;47.454;18.966;2023-02-12T07:01:10;26.85;;;18.10;;
77571;SDS011;67214;47.454;18.966;2023-02-12T07:03:41;26.57;;;17.15;;
77571;SDS011;67214;47.454;18.966;2023-02-12T07:06:10;23.35;;;17.92;;
77571;SDS011;67214;47.454;18.966;2023-02-12T07:08:37;24.65;;;17.02;;
77571;SDS011;67214;47.454;18.966;2023-02-12T07:11:05;23.62;;;17.17;;
77571;SDS011;67214;47.454;18.966;2023-02-12T07:13:33;25.05;;;16.75;;
77571;SDS011;67214;47.454;18.966;2023-02-12T07:16:04;26.68;;;18.10;;
77571;SDS011;67214;47.454;18.966;2023-02-12T07:18:33;28.07;;;19.30;;
77571;SDS011;67214;47.454;18.966;2023-02-12T07:21:01;28.45;;;18.45;;
77571;SDS011;67214;47.454;18.966;2023-02-12T07:23:30;23.65;;;16.32;;
77571;SDS011;67214;47.454;18.966;2023-02-12T07:25:59;20.85;;;14.75;;
77571;SDS011;67214;47.454;18.966;2023-02-12T07:28:29;20.17;;;14.85;;
77571;SDS011;67214;47.454;18.966;2023-02-12T07:31:05;22.30;;;14.38;;
77571;SDS011;67214;47.454;18.966;2023-02-12T07:33:39;23.42;;;15.63;;
77571;SDS011;67214;47.454;18.966;2023-02-12T07:36:09;23.85;;;16.17;;
77571;SDS011;67214;47.454;18.966;2023-02-12T07:38:38;22.75;;;15.68;;
77571;SDS011;67214;47.454;18.966;2023-02-12T07:41:49;21.57;;;15.05;;
77571;SDS011;67214;47.454;18.966;2023-02-12T07:43:46;21.10;;;15.35;;
77571;SDS011;67214;47.454;18.966;2023-02-12T07:46:18;18.82;;;13.60;;
77571;SDS011;67214;47.454;18.966;2023-02-12T07:48:52;17.00;;;12.10;;
77571;SDS011;67214;47.454;18.966;2023-02-12T07:51:20;15.78;;;9.70;;
77571;SDS011;67214;47.454;18.966;2023-02-12T07:53:47;12.58;;;9.20;;
77571;SDS011;67214;47.454;18.966;2023-02-12T07:56:16;14.10;;;9.25;;
77571;SDS011;67214;47.454;18.966;2023-02-12T07:58:46;15.85;;;10.23;;
77571;SDS011;67214;47.454;18.966;2023-02-12T08:03:49;11.28;;;8.20;;
77571;SDS011;67214;47.454;18.966;2023-02-12T08:06:17;21.35;;;13.78;;
77571;SDS011;67214;47.454;18.966;2023-02-12T08:08:49;11.33;;;8.65;;
77571;SDS011;67214;47.454;18.966;2023-02-12T08:11:17;11.00;;;8.15;;
77571;SDS011;67214;47.454;18.966;2023-02-12T08:13:45;10.20;;;7.55;;
77571;SDS011;67214;47.454;18.966;2023-02-12T08:16:19;31.50;;;21.07;;
77571;SDS011;67214;47.454;18.966;2023-02-12T08:18:43;14.68;;;11.48;;
77571;SDS011;67214;47.454;18.966;2023-02-12T08:21:11;16.80;;;11.55;;
77571;SDS011;67214;47.454;18.966;2023-02-12T08:23:44;12.10;;;8.35;;
77571;SDS011;67214;47.454;18.966;2023-02-12T08:26:15;8.55;;;6.45;;
77571;SDS011;67214;47.454;18.966;2023-02-12T08:28:46;10.10;;;7.55;;
77571;SDS011;67214;47.454;18.966;2023-02-12T08:31:22;12.82;;;8.58;;
77571;SDS011;67214;47.454;18.966;2023-02-12T08:33:51;14.78;;;9.30;;
77571;SDS011;67214;47.454;18.966;2023-02-12T08:36:21;10.78;;;7.67;;
77571;SDS011;67214;47.454;18.966;2023-02-12T08:38:51;9.80;;;7.33;;
77571;SDS011;67214;47.454;18.966;2023-02-12T08:41:20;9.73;;;8.05;;
77571;SDS011;67214;47.454;18.966;2023-02-12T08:43:50;9.38;;;6.92;;
77571;SDS011;67214;47.454;18.966;2023-02-12T08:46:24;9.43;;;7.12;;
77571;SDS011;67214;47.454;18.966;2023-02-12T08:48:58;8.53;;;6.73;;
77571;SDS011;67214;47.454;18.966;2023-02-12T08:51:28;8.90;;;6.92;;
77571;SDS011;67214;47.454;18.966;2023-02-12T08:53:58;9.38;;;6.83;;
77571;SDS011;67214;47.454;18.966;2023-02-12T08:56:30;7.28;;;5.53;;
77571;SDS011;67214;47.454;18.966;2023-02-12T08:58:59;8.23;;;5.50;;
77571;SDS011;67214;47.454;18.966;2023-02-12T09:01:29;8.95;;;6.05;;
77571;SDS011;67214;47.454;18.966;2023-02-12T09:04:00;7.55;;;5.50;;
77571;SDS011;67214;47.454;18.966;2023-02-12T09:06:27;8.75;;;5.90;;
77571;SDS011;67214;47.454;18.966;2023-02-12T09:08:57;6.67;;;4.45;;
77571;SDS011;67214;47.454;18.966;2023-02-12T09:11:26;8.28;;;4.70;;
77571;SDS011;67214;47.454;18.966;2023-02-12T09:14:00;6.30;;;4.70;;
77571;SDS011;67214;47.454;18.966;2023-02-12T09:16:29;7.83;;;4.70;;
77571;SDS011;67214;47.454;18.966;2023-02-12T09:18:59;8.35;;;5.92;;
77571;SDS011;67214;47.454;18.966;2023-02-12T09:21:27;6.47;;;5.05;;
77571;SDS011;67214;47.454;18.966;2023-02-12T09:23:54;7.10;;;5.03;;
77571;SDS011;67214;47.454;18.966;2023-02-12T09:26:23;8.35;;;5.25;;
77571;SDS011;67214;47.454;18.966;2023-02-12T09:28:51;7.72;;;5.45;;
77571;SDS011;67214;47.454;18.966;2023-02-12T09:31:22;9.03;;;6.33;;
77571;SDS011;67214;47.454;18.966;2023-02-12T09:33:52;7.87;;;5.92;;
77571;SDS011;67214;47.454;18.966;2023-02-12T09:36:22;10.43;;;7.78;;
77571;SDS011;67214;47.454;18.966;2023-02-12T09:38:49;8.38;;;6.20;;
77571;SDS011;67214;47.454;18.966;2023-02-12T09:44:42;12.23;;;9.65;;
77571;SDS011;67214;47.454;18.966;2023-02-12T09:46:55;12.75;;;8.28;;
77571;SDS011;67214;47.454;18.966;2023-02-12T09:52:24;11.53;;;8.13;;
77571;SDS011;67214;47.454;18.966;2023-02-12T09:54:54;12.95;;;9.18;;
77571;SDS011;67214;47.454;18.966;2023-02-12T09:57:26;12.93;;;9.78;;
77571;SDS011;67214;47.454;18.966;2023-02-12T10:00:09;14.95;;;10.90;;
77571;SDS011;67214;47.454;18.966;2023-02-12T10:02:39;11.38;;;8.95;;
77571;SDS011;67214;47.454;18.966;2023-02-12T10:05:18;12.98;;;8.05;;
77571;SDS011;67214;47.454;18.966;2023-02-12T10:10:26;11.28;;;8.80;;
77571;SDS011;67214;47.454;18.966;2023-02-12T10:13:21;11.83;;;9.00;;
77571;SDS011;67214;47.454;18.966;2023-02-12T10:21:10;14.28;;;10.72;;
77571;SDS011;67214;47.454;18.966;2023-02-12T10:26:15;12.70;;;9.95;;
77571;SDS011;67214;47.454;18.966;2023-02-12T10:28:42;16.73;;;11.25;;
77571;SDS011;67214;47.454;18.966;2023-02-12T10:31:15;12.68;;;9.55;;
77571;SDS011;67214;47.454;18.966;2023-02-12T10:33:45;20.65;;;14.25;;
77571;SDS011;67214;47.454;18.966;2023-02-12T10:36:31;18.48;;;13.30;;
77571;SDS011;67214;47.454;18.966;2023-02-12T10:41:28;13.70;;;10.15;;
77571;SDS011;67214;47.454;18.966;2023-02-12T10:43:58;11.68;;;9.05;;
77571;SDS011;67214;47.454;18.966;2023-02-12T10:46:26;11.95;;;8.40;;
77571;SDS011;67214;47.454;18.966;2023-02-12T10:48:56;9.65;;;7.45;;
77571;SDS011;67214;47.454;18.966;2023-02-12T10:51:37;11.38;;;8.38;;
77571;SDS011;67214;47.454;18.966;2023-02-12T10:54:33;11.25;;;7.65;;
77571;SDS011;67214;47.454;18.966;2023-02-12T10:57:10;14.23;;;10.25;;
77571;SDS011;67214;47.454;18.966;2023-02-12T10:59:46;12.60;;;9.65;;
77571;SDS011;67214;47.454;18.966;2023-02-12T11:02:17;7.10;;;6.03;;
77571;SDS011;67214;47.454;18.966;2023-02-12T11:04:45;7.85;;;6.53;;
77571;SDS011;67214;47.454;18.966;2023-02-12T11:07:13;6.83;;;6.00;;
77571;SDS011;67214;47.454;18.966;2023-02-12T11:09:42;7.53;;;5.28;;
77571;SDS011;67214;47.454;18.966;2023-02-12T11:12:31;6.22;;;4.42;;
77571;SDS011;67214;47.454;18.966;2023-02-12T11:17:55;7.15;;;5.10;;
77571;SDS011;67214;47.454;18.966;2023-02-12T11:22:56;6.67;;;5.27;;
77571;SDS011;67214;47.454;18.966;2023-02-12T11:25:35;8.63;;;5.37;;
77571;SDS011;67214;47.454;18.966;2023-02-12T11:28:16;8.93;;;5.75;;
77571;SDS011;67214;47.454;18.966;2023-02-12T11:30:58;8.75;;;5.30;;
77571;SDS011;67214;47.454;18.966;2023-02-12T11:33:39;9.37;;;6.20;;
77571;SDS011;67214;47.454;18.966;2023-02-12T11:39:02;9.55;;;5.83;;
77571;SDS011;67214;47.454;18.966;2023-02-12T11:41:24;8.03;;;5.70;;
77571;SDS011;67214;47.454;18.966;2023-02-12T11:44:12;8.23;;;5.97;;
77571;SDS011;67214;47.454;18.966;2023-02-12T11:46:52;8.93;;;5.62;;
77571;SDS011;67214;47.454;18.966;2023-02-12T11:49:20;7.35;;;5.58;;
77571;SDS011;67214;47.454;18.966;2023-02-12T11:51:53;8.00;;;5.87;;
77571;SDS011;67214;47.454;18.966;2023-02-12T11:54:23;8.58;;;6.45;;
77571;SDS011;67214;47.454;18.966;2023-02-12T11:56:53;7.15;;;5.17;;
77571;SDS011;67214;47.454;18.966;2023-02-12T11:59:35;8.35;;;5.85;;
77571;SDS011;67214;47.454;18.966;2023-02-12T12:02:24;8.03;;;5.15;;
77571;SDS011;67214;47.454;18.966;2023-02-12T12:04:53;7.80;;;5.67;;
77571;SDS011;67214;47.454;18.966;2023-02-12T12:07:26;9.73;;;5.25;;
77571;SDS011;67214;47.454;18.966;2023-02-12T12:09:57;7.33;;;5.42;;
77571;SDS011;67214;47.454;18.966;2023-02-12T12:18:11;6.42;;;4.47;;
77571;SDS011;67214;47.454;18.966;2023-02-12T12:21:07;7.75;;;5.87;;
77571;SDS011;67214;47.454;18.966;2023-02-12T12:23:38;8.80;;;5.95;;
77571;SDS011;67214;47.454;18.966;2023-02-12T12:29:00;6.70;;;4.53;;
77571;SDS011;67214;47.454;18.966;2023-02-12T12:34:26;7.97;;;5.58;;
77571;SDS011;67214;47.454;18.966;2023-02-12T12:47:57;7.17;;;5.35;;
77571;SDS011;67214;47.454;18.966;2023-02-12T12:50:36;8.43;;;5.47;;
77571;SDS011;67214;47.454;18.966;2023-02-12T12:56:07;7.65;;;5.15;;
77571;SDS011;67214;47.454;18.966;2023-02-12T13:01:32;7.37;;;4.85;;
77571;SDS011;67214;47.454;18.966;2023-02-12T13:07:12;7.20;;;4.90;;
77571;SDS011;67214;47.454;18.966;2023-02-12T13:15:18;7.03;;;5.12;;
77571;SDS011;67214;47.454;18.966;2023-02-12T13:17:55;7.90;;;5.42;;
77571;SDS011;67214;47.454;18.966;2023-02-12T13:20:29;7.67;;;5.17;;
77571;SDS011;67214;47.454;18.966;2023-02-12T13:22:57;9.18;;;5.33;;
77571;SDS011;67214;47.454;18.966;2023-02-12T13:28:13;18.85;;;12.68;;
77571;SDS011;67214;47.454;18.966;2023-02-12T13:30:44;21.85;;;16.23;;
77571;SDS011;67214;47.454;18.966;2023-02-12T13:35:53;55.70;;;26.87;;
77571;SDS011;67214;47.454;18.966;2023-02-12T13:38:26;87.62;;;35.65;;
77571;SDS011;67214;47.454;18.966;2023-02-12T13:40:57;100.20;;;41.35;;
77571;SDS011;67214;47.454;18.966;2023-02-12T13:46:23;52.15;;;26.17;;
77571;SDS011;67214;47.454;18.966;2023-02-12T13:49:05;24.47;;;17.25;;
77571;SDS011;67214;47.454;18.966;2023-02-12T13:52:00;27.17;;;17.10;;
77571;SDS011;67214;47.454;18.966;2023-02-12T13:54:31;42.83;;;26.40;;
77571;SDS011;67214;47.454;18.966;2023-02-12T13:57:02;34.55;;;22.65;;
77571;SDS011;67214;47.454;18.966;2023-02-12T14:02:04;24.87;;;18.02;;
77571;SDS011;67214;47.454;18.966;2023-02-12T14:04:42;26.37;;;19.50;;
77571;SDS011;67214;47.454;18.966;2023-02-12T14:07:13;23.70;;;16.82;;
77571;SDS011;67214;47.454;18.966;2023-02-12T14:09:43;22.25;;;15.98;;
77571;SDS011;67214;47.454;18.966;2023-02-12T14:15:07;21.07;;;15.63;;
77571;SDS011;67214;47.454;18.966;2023-02-12T14:17:41;21.90;;;14.83;;
77571;SDS011;67214;47.454;18.966;2023-02-12T14:28:04;32.30;;;22.48;;
77571;SDS011;67214;47.454;18.966;2023-02-12T14:30:45;33.38;;;22.80;;
77571;SDS011;67214;47.454;18.966;2023-02-12T14:33:18;32.25;;;23.67;;
77571;SDS011;67214;47.454;18.966;2023-02-12T14:35:48;33.50;;;23.07;;
77571;SDS011;67214;47.454;18.966;2023-02-12T14:40:48;46.53;;;28.80;;
77571;SDS011;67214;47.454;18.966;2023-02-12T14:43:29;35.35;;;25.15;;
77571;SDS011;67214;47.454;18.966;2023-02-12T14:46:45;42.43;;;27.13;;
77571;SDS011;67214;47.454;18.966;2023-02-12T14:51:24;36.17;;;25.80;;
77571;SDS011;67214;47.454;18.966;2023-02-12T14:56:53;35.15;;;25.57;;
77571;SDS011;67214;47.454;18.966;2023-02-12T14:59:22;40.17;;;26.48;;
77571;SDS011;67214;47.454;18.966;2023-02-12T15:01:52;34.18;;;24.67;;
77571;SDS011;67214;47.454;18.966;2023-02-12T15:06:57;39.60;;;26.97;;
77571;SDS011;67214;47.454;18.966;2023-02-12T15:09:45;37.28;;;25.02;;
77571;SDS011;67214;47.454;18.966;2023-02-12T15:12:11;63.13;;;40.73;;
77571;SDS011;67214;47.454;18.966;2023-02-12T15:15:00;43.23;;;30.68;;
77571;SDS011;67214;47.454;18.966;2023-02-12T15:17:26;46.42;;;31.60;;
77571;SDS011;67214;47.454;18.966;2023-02-12T15:22:44;57.10;;;40.50;;
77571;SDS011;67214;47.454;18.966;2023-02-12T15:25:16;47.95;;;32.90;;
77571;SDS011;67214;47.454;18.966;2023-02-12T15:27:45;64.42;;;46.68;;
77571;SDS011;67214;47.454;18.966;2023-02-12T15:30:15;45.60;;;31.35;;
77571;SDS011;67214;47.454;18.966;2023-02-12T15:32:45;44.35;;;29.75;;
77571;SDS011;67214;47.454;18.966;2023-02-12T15:35:22;47.45;;;34.58;;
77571;SDS011;67214;47.454;18.966;2023-02-12T15:37:47;52.20;;;35.23;;
77571;SDS011;67214;47.454;18.966;2023-02-12T15:40:16;45.43;;;32.40;;
77571;SDS011;67214;47.454;18.966;2023-02-12T15:42:51;48.45;;;33.78;;
77571;SDS011;67214;47.454;18.966;2023-02-12T15:45:25;46.60;;;32.63;;
77571;SDS011;67214;47.454;18.966;2023-02-12T15:48:01;53.95;;;34.75;;
77571;SDS011;67214;47.454;18.966;2023-02-12T15:50:34;47.95;;;32.98;;
77571;SDS011;67214;47.454;18.966;2023-02-12T15:53:03;46.55;;;33.33;;
77571;SDS011;67214;47.454;18.966;2023-02-12T15:55:33;49.18;;;32.93;;
77571;SDS011;67214;47.454;18.966;2023-02-12T15:58:02;47.83;;;31.80;;
77571;SDS011;67214;47.454;18.966;2023-02-12T16:00:41;44.27;;;32.03;;
77571;SDS011;67214;47.454;18.966;2023-02-12T16:03:22;47.75;;;31.82;;
77571;SDS011;67214;47.454;18.966;2023-02-12T16:05:51;47.53;;;32.13;;
77571;SDS011;67214;47.454;18.966;2023-02-12T16:08:22;45.48;;;31.37;;
77571;SDS011;67214;47.454;18.966;2023-02-12T16:10:51;51.55;;;34.85;;
77571;SDS011;67214;47.454;18.966;2023-02-12T16:13:31;50.03;;;32.50;;
77571;SDS011;67214;47.454;18.966;2023-02-12T16:18:40;48.85;;;33.02;;
77571;SDS011;67214;47.454;18.966;2023-02-12T16:21:11;50.63;;;34.05;;
77571;SDS011;67214;47.454;18.966;2023-02-12T16:23:43;50.38;;;34.70;;
77571;SDS011;67214;47.454;18.966;2023-02-12T16:26:15;52.73;;;34.80;;
77571;SDS011;67214;47.454;18.966;2023-02-12T16:28:53;62.83;;;37.90;;
77571;SDS011;67214;47.454;18.966;2023-02-12T16:31:24;63.92;;;39.45;;
77571;SDS011;67214;47.454;18.966;2023-02-12T16:33:54;89.45;;;54.00;;
77571;SDS011;67214;47.454;18.966;2023-02-12T16:36:27;77.60;;;48.48;;
77571;SDS011;67214;47.454;18.966;2023-02-12T16:38:57;80.10;;;48.42;;
77571;SDS011;67214;47.454;18.966;2023-02-12T16:41:30;101.47;;;72.30;;
77571;SDS011;67214;47.454;18.966;2023-02-12T16:46:31;79.53;;;46.02;;
77571;SDS011;67214;47.454;18.966;2023-02-12T16:49:02;71.22;;;43.40;;
77571;SDS011;67214;47.454;18.966;2023-02-12T16:51:31;67.25;;;42.00;;
77571;SDS011;67214;47.454;18.966;2023-02-12T16:54:03;68.00;;;42.60;;
77571;SDS011;67214;47.454;18.966;2023-02-12T16:56:33;69.25;;;43.00;;
77571;SDS011;67214;47.454;18.966;2023-02-12T16:59:07;82.62;;;49.63;;